Terminal Aerodrome Forecast
Issued by NWS Mt. Holly, NJ

Home | Current Version | Previous Version | Text Only | Print | Product List | Glossary On
Versions: 1 2 3 4 5 6 7 8 9 10 11 12 13 14 15 16 17 18 19 20 21 22 23 24 25 26 27
312
FTUS41 KPHI 172159 AAC
TAFILG
TAF AMD
KILG 172159Z 1722/1818 15006KT 4SM -SHRA BR OVC007
      TEMPO 1722/1724 1 1/2SM SHRA BR OVC005
     FM180000 VRB03KT 1SM -DZ BR OVC003
     FM181000 31006KT 3SM BR BKN005 OVC015
     FM181500 31008KT P6SM BKN015
     FM181700 32010G18KT P6SM BKN035=

USA.gov is the U.S. government's official web portal to all federal, state and local government web resources and services.